sensor_id;sensor_type;location;lat;lon;timestamp;P1;durP1;ratioP1;P2;durP2;ratioP2
59062;SDS011;44851;45.648;9.004;2023-11-19T00:01:31;10.07;;;9.07;;
59062;SDS011;44851;45.648;9.004;2023-11-19T00:03:57;10.40;;;8.43;;
59062;SDS011;44851;45.648;9.004;2023-11-19T00:06:23;9.43;;;8.47;;
59062;SDS011;44851;45.648;9.004;2023-11-19T00:08:49;10.03;;;8.23;;
59062;SDS011;44851;45.648;9.004;2023-11-19T00:11:15;9.43;;;8.10;;
59062;SDS011;44851;45.648;9.004;2023-11-19T00:13:41;9.33;;;8.10;;
59062;SDS011;44851;45.648;9.004;2023-11-19T00:16:06;8.80;;;7.90;;
59062;SDS011;44851;45.648;9.004;2023-11-19T00:18:33;9.17;;;8.17;;
59062;SDS011;44851;45.648;9.004;2023-11-19T00:20:58;9.47;;;8.47;;
59062;SDS011;44851;45.648;9.004;2023-11-19T00:23:23;9.87;;;8.87;;
59062;SDS011;44851;45.648;9.004;2023-11-19T00:25:49;9.73;;;8.63;;
59062;SDS011;44851;45.648;9.004;2023-11-19T00:28:14;9.67;;;8.67;;
59062;SDS011;44851;45.648;9.004;2023-11-19T00:30:39;8.60;;;7.70;;
59062;SDS011;44851;45.648;9.004;2023-11-19T00:33:08;11.33;;;9.13;;
59062;SDS011;44851;45.648;9.004;2023-11-19T00:35:33;11.37;;;8.80;;
59062;SDS011;44851;45.648;9.004;2023-11-19T00:37:58;10.50;;;8.90;;
59062;SDS011;44851;45.648;9.004;2023-11-19T00:40:24;9.20;;;8.30;;
59062;SDS011;44851;45.648;9.004;2023-11-19T00:42:49;9.40;;;8.40;;
59062;SDS011;44851;45.648;9.004;2023-11-19T00:45:15;10.13;;;8.70;;
59062;SDS011;44851;45.648;9.004;2023-11-19T00:47:40;11.20;;;8.87;;
59062;SDS011;44851;45.648;9.004;2023-11-19T00:50:06;11.33;;;9.03;;
59062;SDS011;44851;45.648;9.004;2023-11-19T00:52:34;11.50;;;9.07;;
59062;SDS011;44851;45.648;9.004;2023-11-19T00:55:00;11.03;;;9.20;;
59062;SDS011;44851;45.648;9.004;2023-11-19T00:57:26;12.47;;;9.93;;
59062;SDS011;44851;45.648;9.004;2023-11-19T00:59:52;13.03;;;9.50;;
59062;SDS011;44851;45.648;9.004;2023-11-19T01:02:17;12.80;;;10.03;;
59062;SDS011;44851;45.648;9.004;2023-11-19T01:04:42;11.57;;;10.37;;
59062;SDS011;44851;45.648;9.004;2023-11-19T01:07:09;10.87;;;9.60;;
59062;SDS011;44851;45.648;9.004;2023-11-19T01:09:37;12.67;;;10.30;;
59062;SDS011;44851;45.648;9.004;2023-11-19T01:12:04;11.87;;;9.57;;
59062;SDS011;44851;45.648;9.004;2023-11-19T01:14:30;12.70;;;10.17;;
59062;SDS011;44851;45.648;9.004;2023-11-19T01:16:55;10.80;;;9.70;;
59062;SDS011;44851;45.648;9.004;2023-11-19T01:19:21;11.57;;;10.13;;
59062;SDS011;44851;45.648;9.004;2023-11-19T01:21:48;11.67;;;10.20;;
59062;SDS011;44851;45.648;9.004;2023-11-19T01:24:14;12.00;;;10.20;;
59062;SDS011;44851;45.648;9.004;2023-11-19T01:26:39;12.17;;;9.83;;
59062;SDS011;44851;45.648;9.004;2023-11-19T01:29:10;10.97;;;9.57;;
59062;SDS011;44851;45.648;9.004;2023-11-19T01:31:39;10.43;;;8.67;;
59062;SDS011;44851;45.648;9.004;2023-11-19T01:34:08;10.03;;;8.90;;
59062;SDS011;44851;45.648;9.004;2023-11-19T01:36:35;9.50;;;7.87;;
59062;SDS011;44851;45.648;9.004;2023-11-19T01:39:00;12.00;;;8.27;;
59062;SDS011;44851;45.648;9.004;2023-11-19T01:41:26;11.93;;;8.83;;
59062;SDS011;44851;45.648;9.004;2023-11-19T01:43:51;10.00;;;9.00;;
59062;SDS011;44851;45.648;9.004;2023-11-19T01:46:16;10.83;;;8.40;;
59062;SDS011;44851;45.648;9.004;2023-11-19T01:48:42;10.63;;;9.30;;
59062;SDS011;44851;45.648;9.004;2023-11-19T01:51:10;9.50;;;8.50;;
59062;SDS011;44851;45.648;9.004;2023-11-19T01:53:37;10.27;;;8.27;;
59062;SDS011;44851;45.648;9.004;2023-11-19T01:56:05;9.40;;;8.10;;
59062;SDS011;44851;45.648;9.004;2023-11-19T01:58:34;8.63;;;7.67;;
59062;SDS011;44851;45.648;9.004;2023-11-19T02:01:00;8.60;;;7.60;;
59062;SDS011;44851;45.648;9.004;2023-11-19T02:03:28;9.63;;;7.73;;
59062;SDS011;44851;45.648;9.004;2023-11-19T02:05:56;8.53;;;7.10;;
59062;SDS011;44851;45.648;9.004;2023-11-19T02:08:22;10.40;;;7.40;;
59062;SDS011;44851;45.648;9.004;2023-11-19T02:10:47;8.83;;;7.93;;
59062;SDS011;44851;45.648;9.004;2023-11-19T02:13:13;8.87;;;7.80;;
59062;SDS011;44851;45.648;9.004;2023-11-19T02:15:39;8.90;;;7.50;;
59062;SDS011;44851;45.648;9.004;2023-11-19T02:18:21;8.37;;;7.13;;
59062;SDS011;44851;45.648;9.004;2023-11-19T02:20:49;9.67;;;7.90;;
59062;SDS011;44851;45.648;9.004;2023-11-19T02:23:15;8.40;;;7.30;;
59062;SDS011;44851;45.648;9.004;2023-11-19T02:25:41;9.63;;;7.60;;
59062;SDS011;44851;45.648;9.004;2023-11-19T02:28:08;9.87;;;8.50;;
59062;SDS011;44851;45.648;9.004;2023-11-19T02:30:36;9.43;;;7.57;;
59062;SDS011;44851;45.648;9.004;2023-11-19T02:33:02;9.33;;;8.07;;
59062;SDS011;44851;45.648;9.004;2023-11-19T02:35:30;10.80;;;8.50;;
59062;SDS011;44851;45.648;9.004;2023-11-19T02:37:57;8.90;;;7.40;;
59062;SDS011;44851;45.648;9.004;2023-11-19T02:40:24;9.20;;;7.40;;
59062;SDS011;44851;45.648;9.004;2023-11-19T02:42:50;9.67;;;7.40;;
59062;SDS011;44851;45.648;9.004;2023-11-19T02:45:19;7.90;;;7.10;;
59062;SDS011;44851;45.648;9.004;2023-11-19T02:47:44;8.23;;;7.00;;
59062;SDS011;44851;45.648;9.004;2023-11-19T02:50:10;7.77;;;6.97;;
59062;SDS011;44851;45.648;9.004;2023-11-19T02:52:42;8.50;;;6.80;;
59062;SDS011;44851;45.648;9.004;2023-11-19T02:55:11;8.63;;;6.77;;
59062;SDS011;44851;45.648;9.004;2023-11-19T02:57:39;7.90;;;6.70;;
59062;SDS011;44851;45.648;9.004;2023-11-19T03:00:18;8.67;;;6.37;;
59062;SDS011;44851;45.648;9.004;2023-11-19T03:02:48;9.33;;;6.60;;
59062;SDS011;44851;45.648;9.004;2023-11-19T03:05:23;7.70;;;6.33;;
59062;SDS011;44851;45.648;9.004;2023-11-19T03:07:49;6.93;;;5.90;;
59062;SDS011;44851;45.648;9.004;2023-11-19T03:10:15;6.23;;;5.43;;
59062;SDS011;44851;45.648;9.004;2023-11-19T03:12:40;6.73;;;5.53;;
59062;SDS011;44851;45.648;9.004;2023-11-19T03:15:07;6.53;;;5.43;;
59062;SDS011;44851;45.648;9.004;2023-11-19T03:17:35;6.10;;;5.50;;
59062;SDS011;44851;45.648;9.004;2023-11-19T03:20:08;5.30;;;4.80;;
59062;SDS011;44851;45.648;9.004;2023-11-19T03:22:39;6.03;;;5.17;;
59062;SDS011;44851;45.648;9.004;2023-11-19T03:25:06;5.80;;;5.10;;
59062;SDS011;44851;45.648;9.004;2023-11-19T03:27:33;7.17;;;5.53;;
59062;SDS011;44851;45.648;9.004;2023-11-19T03:30:00;5.77;;;5.17;;
59062;SDS011;44851;45.648;9.004;2023-11-19T03:32:26;5.93;;;5.30;;
59062;SDS011;44851;45.648;9.004;2023-11-19T03:34:52;6.33;;;5.17;;
59062;SDS011;44851;45.648;9.004;2023-11-19T03:37:17;5.60;;;5.10;;
59062;SDS011;44851;45.648;9.004;2023-11-19T03:39:43;6.87;;;5.30;;
59062;SDS011;44851;45.648;9.004;2023-11-19T03:42:08;5.40;;;4.83;;
59062;SDS011;44851;45.648;9.004;2023-11-19T03:44:34;5.87;;;5.00;;
59062;SDS011;44851;45.648;9.004;2023-11-19T03:46:59;7.23;;;4.77;;
59062;SDS011;44851;45.648;9.004;2023-11-19T03:49:24;5.20;;;4.60;;
59062;SDS011;44851;45.648;9.004;2023-11-19T03:51:50;6.30;;;5.07;;
59062;SDS011;44851;45.648;9.004;2023-11-19T03:54:15;6.33;;;4.83;;
59062;SDS011;44851;45.648;9.004;2023-11-19T03:56:40;6.43;;;5.03;;
59062;SDS011;44851;45.648;9.004;2023-11-19T03:59:06;7.20;;;5.20;;
59062;SDS011;44851;45.648;9.004;2023-11-19T04:01:32;6.30;;;4.67;;
59062;SDS011;44851;45.648;9.004;2023-11-19T04:03:57;7.00;;;4.73;;
59062;SDS011;44851;45.648;9.004;2023-11-19T04:06:22;6.00;;;5.03;;
59062;SDS011;44851;45.648;9.004;2023-11-19T04:08:48;6.00;;;5.00;;
59062;SDS011;44851;45.648;9.004;2023-11-19T04:11:14;5.50;;;4.67;;
59062;SDS011;44851;45.648;9.004;2023-11-19T04:13:39;5.70;;;4.57;;
59062;SDS011;44851;45.648;9.004;2023-11-19T04:16:05;4.73;;;4.33;;
59062;SDS011;44851;45.648;9.004;2023-11-19T04:18:31;6.33;;;5.23;;
59062;SDS011;44851;45.648;9.004;2023-11-19T04:20:57;6.03;;;4.40;;
59062;SDS011;44851;45.648;9.004;2023-11-19T04:23:22;5.93;;;4.77;;
59062;SDS011;44851;45.648;9.004;2023-11-19T04:25:49;6.03;;;4.67;;
59062;SDS011;44851;45.648;9.004;2023-11-19T04:28:15;5.70;;;5.00;;
59062;SDS011;44851;45.648;9.004;2023-11-19T04:30:41;5.40;;;4.73;;
59062;SDS011;44851;45.648;9.004;2023-11-19T04:33:06;4.70;;;4.10;;
59062;SDS011;44851;45.648;9.004;2023-11-19T04:35:32;5.77;;;4.50;;
59062;SDS011;44851;45.648;9.004;2023-11-19T04:37:57;5.57;;;4.27;;
59062;SDS011;44851;45.648;9.004;2023-11-19T04:40:23;5.03;;;4.50;;
59062;SDS011;44851;45.648;9.004;2023-11-19T04:42:48;5.97;;;4.73;;
59062;SDS011;44851;45.648;9.004;2023-11-19T04:45:14;5.57;;;4.43;;
59062;SDS011;44851;45.648;9.004;2023-11-19T04:47:41;5.97;;;4.80;;
59062;SDS011;44851;45.648;9.004;2023-11-19T04:50:07;4.87;;;4.37;;
59062;SDS011;44851;45.648;9.004;2023-11-19T04:52:36;6.20;;;4.43;;
59062;SDS011;44851;45.648;9.004;2023-11-19T04:55:03;4.83;;;4.13;;
59062;SDS011;44851;45.648;9.004;2023-11-19T04:57:29;5.53;;;4.17;;
59062;SDS011;44851;45.648;9.004;2023-11-19T04:59:54;6.47;;;4.57;;
59062;SDS011;44851;45.648;9.004;2023-11-19T05:02:19;5.43;;;4.50;;
59062;SDS011;44851;45.648;9.004;2023-11-19T05:04:45;6.00;;;4.63;;
59062;SDS011;44851;45.648;9.004;2023-11-19T05:07:11;6.87;;;4.40;;
59062;SDS011;44851;45.648;9.004;2023-11-19T05:09:37;4.53;;;4.13;;
59062;SDS011;44851;45.648;9.004;2023-11-19T05:12:02;5.13;;;4.27;;
59062;SDS011;44851;45.648;9.004;2023-11-19T05:14:28;4.77;;;4.27;;
59062;SDS011;44851;45.648;9.004;2023-11-19T05:16:53;5.33;;;4.70;;
59062;SDS011;44851;45.648;9.004;2023-11-19T05:19:19;4.90;;;4.00;;
59062;SDS011;44851;45.648;9.004;2023-11-19T05:21:44;4.90;;;4.27;;
59062;SDS011;44851;45.648;9.004;2023-11-19T05:24:10;5.13;;;4.03;;
59062;SDS011;44851;45.648;9.004;2023-11-19T05:26:36;5.27;;;4.50;;
59062;SDS011;44851;45.648;9.004;2023-11-19T05:29:02;5.37;;;4.17;;
59062;SDS011;44851;45.648;9.004;2023-11-19T05:31:27;7.40;;;4.37;;
59062;SDS011;44851;45.648;9.004;2023-11-19T05:33:53;3.90;;;3.50;;
59062;SDS011;44851;45.648;9.004;2023-11-19T05:36:18;5.80;;;4.17;;
59062;SDS011;44851;45.648;9.004;2023-11-19T05:38:43;4.13;;;3.73;;
59062;SDS011;44851;45.648;9.004;2023-11-19T05:41:09;4.77;;;3.87;;
59062;SDS011;44851;45.648;9.004;2023-11-19T05:43:35;5.73;;;3.90;;
59062;SDS011;44851;45.648;9.004;2023-11-19T05:46:00;5.70;;;3.90;;
59062;SDS011;44851;45.648;9.004;2023-11-19T05:48:29;5.63;;;4.40;;
59062;SDS011;44851;45.648;9.004;2023-11-19T05:50:54;5.70;;;3.93;;
59062;SDS011;44851;45.648;9.004;2023-11-19T05:53:20;4.67;;;3.40;;
59062;SDS011;44851;45.648;9.004;2023-11-19T05:55:45;4.50;;;4.00;;
59062;SDS011;44851;45.648;9.004;2023-11-19T05:58:25;4.97;;;3.80;;
59062;SDS011;44851;45.648;9.004;2023-11-19T06:00:53;4.53;;;4.13;;
59062;SDS011;44851;45.648;9.004;2023-11-19T06:03:22;4.83;;;3.97;;
59062;SDS011;44851;45.648;9.004;2023-11-19T06:05:47;7.00;;;4.07;;
59062;SDS011;44851;45.648;9.004;2023-11-19T06:08:13;7.40;;;4.27;;
59062;SDS011;44851;45.648;9.004;2023-11-19T06:10:40;5.10;;;3.90;;
59062;SDS011;44851;45.648;9.004;2023-11-19T06:13:06;5.53;;;4.00;;
59062;SDS011;44851;45.648;9.004;2023-11-19T06:15:31;5.07;;;4.37;;
59062;SDS011;44851;45.648;9.004;2023-11-19T06:17:58;5.30;;;4.07;;
59062;SDS011;44851;45.648;9.004;2023-11-19T06:20:26;6.13;;;4.83;;
59062;SDS011;44851;45.648;9.004;2023-11-19T06:22:53;6.17;;;4.43;;
59062;SDS011;44851;45.648;9.004;2023-11-19T06:25:19;7.13;;;5.57;;
59062;SDS011;44851;45.648;9.004;2023-11-19T06:27:44;6.07;;;5.20;;
59062;SDS011;44851;45.648;9.004;2023-11-19T06:30:10;5.50;;;4.67;;
59062;SDS011;44851;45.648;9.004;2023-11-19T06:32:36;6.47;;;5.73;;
59062;SDS011;44851;45.648;9.004;2023-11-19T06:35:02;7.33;;;6.07;;
59062;SDS011;44851;45.648;9.004;2023-11-19T06:37:29;7.40;;;5.10;;
59062;SDS011;44851;45.648;9.004;2023-11-19T06:39:55;5.77;;;5.17;;
59062;SDS011;44851;45.648;9.004;2023-11-19T06:42:20;6.00;;;5.40;;
59062;SDS011;44851;45.648;9.004;2023-11-19T06:44:46;5.90;;;4.83;;
59062;SDS011;44851;45.648;9.004;2023-11-19T06:47:11;5.50;;;4.20;;
59062;SDS011;44851;45.648;9.004;2023-11-19T06:49:36;4.37;;;3.93;;
59062;SDS011;44851;45.648;9.004;2023-11-19T06:52:02;4.23;;;3.83;;
59062;SDS011;44851;45.648;9.004;2023-11-19T06:54:27;4.50;;;3.40;;
59062;SDS011;44851;45.648;9.004;2023-11-19T06:56:53;4.00;;;3.60;;
59062;SDS011;44851;45.648;9.004;2023-11-19T06:59:18;4.37;;;3.20;;
59062;SDS011;44851;45.648;9.004;2023-11-19T07:01:44;4.00;;;3.23;;
59062;SDS011;44851;45.648;9.004;2023-11-19T07:04:12;4.27;;;3.60;;
59062;SDS011;44851;45.648;9.004;2023-11-19T07:06:37;4.67;;;3.33;;
59062;SDS011;44851;45.648;9.004;2023-11-19T07:09:06;3.87;;;3.47;;
59062;SDS011;44851;45.648;9.004;2023-11-19T07:11:38;6.13;;;3.40;;
59062;SDS011;44851;45.648;9.004;2023-11-19T07:14:05;5.60;;;3.93;;
59062;SDS011;44851;45.648;9.004;2023-11-19T07:16:31;4.67;;;3.70;;
59062;SDS011;44851;45.648;9.004;2023-11-19T07:18:59;4.30;;;3.63;;
59062;SDS011;44851;45.648;9.004;2023-11-19T07:21:25;4.30;;;3.63;;
59062;SDS011;44851;45.648;9.004;2023-11-19T07:23:53;4.33;;;3.23;;
59062;SDS011;44851;45.648;9.004;2023-11-19T07:26:18;4.33;;;3.67;;
59062;SDS011;44851;45.648;9.004;2023-11-19T07:28:44;4.17;;;3.43;;
59062;SDS011;44851;45.648;9.004;2023-11-19T07:31:10;4.10;;;3.50;;
59062;SDS011;44851;45.648;9.004;2023-11-19T07:33:36;4.90;;;4.03;;
59062;SDS011;44851;45.648;9.004;2023-11-19T07:36:01;5.13;;;4.43;;
59062;SDS011;44851;45.648;9.004;2023-11-19T07:38:27;5.20;;;3.77;;
59062;SDS011;44851;45.648;9.004;2023-11-19T07:40:52;4.60;;;4.20;;
59062;SDS011;44851;45.648;9.004;2023-11-19T07:43:17;5.40;;;3.97;;
59062;SDS011;44851;45.648;9.004;2023-11-19T07:45:43;4.47;;;4.00;;
59062;SDS011;44851;45.648;9.004;2023-11-19T07:48:11;4.03;;;3.63;;
59062;SDS011;44851;45.648;9.004;2023-11-19T07:50:38;5.27;;;4.27;;
59062;SDS011;44851;45.648;9.004;2023-11-19T07:53:03;4.83;;;4.30;;
59062;SDS011;44851;45.648;9.004;2023-11-19T07:55:29;5.50;;;4.10;;
59062;SDS011;44851;45.648;9.004;2023-11-19T07:57:56;4.73;;;3.80;;
59062;SDS011;44851;45.648;9.004;2023-11-19T08:00:21;4.97;;;4.10;;
59062;SDS011;44851;45.648;9.004;2023-11-19T08:02:46;5.00;;;4.53;;
59062;SDS011;44851;45.648;9.004;2023-11-19T08:05:12;5.63;;;4.13;;
59062;SDS011;44851;45.648;9.004;2023-11-19T08:07:37;5.07;;;4.30;;
59062;SDS011;44851;45.648;9.004;2023-11-19T08:10:03;6.53;;;5.50;;
59062;SDS011;44851;45.648;9.004;2023-11-19T08:12:30;6.47;;;5.20;;
59062;SDS011;44851;45.648;9.004;2023-11-19T08:14:56;6.60;;;5.90;;
59062;SDS011;44851;45.648;9.004;2023-11-19T08:17:23;7.37;;;6.23;;
59062;SDS011;44851;45.648;9.004;2023-11-19T08:19:49;7.47;;;6.30;;
59062;SDS011;44851;45.648;9.004;2023-11-19T08:22:14;6.07;;;4.90;;
59062;SDS011;44851;45.648;9.004;2023-11-19T08:24:41;5.90;;;5.10;;
59062;SDS011;44851;45.648;9.004;2023-11-19T08:27:07;8.30;;;5.03;;
59062;SDS011;44851;45.648;9.004;2023-11-19T08:29:32;4.73;;;4.20;;
59062;SDS011;44851;45.648;9.004;2023-11-19T08:31:57;5.00;;;4.40;;
59062;SDS011;44851;45.648;9.004;2023-11-19T08:34:25;6.87;;;4.73;;
59062;SDS011;44851;45.648;9.004;2023-11-19T08:36:51;5.17;;;4.43;;
59062;SDS011;44851;45.648;9.004;2023-11-19T08:39:18;6.50;;;5.80;;
59062;SDS011;44851;45.648;9.004;2023-11-19T08:41:44;8.07;;;5.23;;
59062;SDS011;44851;45.648;9.004;2023-11-19T08:44:09;6.73;;;5.57;;
59062;SDS011;44851;45.648;9.004;2023-11-19T08:46:34;6.10;;;5.20;;
59062;SDS011;44851;45.648;9.004;2023-11-19T08:49:00;9.80;;;7.07;;
59062;SDS011;44851;45.648;9.004;2023-11-19T08:51:25;22.80;;;16.90;;
59062;SDS011;44851;45.648;9.004;2023-11-19T08:53:51;43.70;;;32.33;;
59062;SDS011;44851;45.648;9.004;2023-11-19T08:56:16;30.67;;;23.13;;
59062;SDS011;44851;45.648;9.004;2023-11-19T08:58:42;15.33;;;11.40;;
59062;SDS011;44851;45.648;9.004;2023-11-19T09:01:07;6.03;;;5.17;;
59062;SDS011;44851;45.648;9.004;2023-11-19T09:03:33;5.43;;;4.17;;
59062;SDS011;44851;45.648;9.004;2023-11-19T09:05:58;7.47;;;6.60;;
59062;SDS011;44851;45.648;9.004;2023-11-19T09:08:25;5.77;;;5.13;;
59062;SDS011;44851;45.648;9.004;2023-11-19T09:10:50;5.90;;;4.60;;
59062;SDS011;44851;45.648;9.004;2023-11-19T09:13:16;6.63;;;5.10;;
59062;SDS011;44851;45.648;9.004;2023-11-19T09:15:41;5.77;;;4.70;;
59062;SDS011;44851;45.648;9.004;2023-11-19T09:18:07;4.60;;;4.10;;
59062;SDS011;44851;45.648;9.004;2023-11-19T09:20:33;7.10;;;6.40;;
59062;SDS011;44851;45.648;9.004;2023-11-19T09:23:03;8.00;;;6.73;;
59062;SDS011;44851;45.648;9.004;2023-11-19T09:25:28;7.47;;;6.07;;
59062;SDS011;44851;45.648;9.004;2023-11-19T09:27:54;4.80;;;4.30;;
59062;SDS011;44851;45.648;9.004;2023-11-19T09:30:19;5.03;;;4.47;;
59062;SDS011;44851;45.648;9.004;2023-11-19T09:32:45;4.83;;;4.33;;
59062;SDS011;44851;45.648;9.004;2023-11-19T09:35:10;5.07;;;4.20;;
59062;SDS011;44851;45.648;9.004;2023-11-19T09:37:38;5.10;;;4.60;;
59062;SDS011;44851;45.648;9.004;2023-11-19T09:40:04;5.57;;;5.07;;
59062;SDS011;44851;45.648;9.004;2023-11-19T09:42:31;6.77;;;5.90;;
59062;SDS011;44851;45.648;9.004;2023-11-19T09:45:08;5.57;;;4.97;;
59062;SDS011;44851;45.648;9.004;2023-11-19T09:47:39;7.30;;;5.17;;
59062;SDS011;44851;45.648;9.004;2023-11-19T09:50:05;6.93;;;6.27;;
59062;SDS011;44851;45.648;9.004;2023-11-19T09:52:30;7.03;;;5.63;;
59062;SDS011;44851;45.648;9.004;2023-11-19T09:54:56;6.17;;;5.27;;
59062;SDS011;44851;45.648;9.004;2023-11-19T09:57:22;6.20;;;5.43;;
59062;SDS011;44851;45.648;9.004;2023-11-19T09:59:47;6.50;;;5.90;;
59062;SDS011;44851;45.648;9.004;2023-11-19T10:02:13;7.10;;;6.40;;
59062;SDS011;44851;45.648;9.004;2023-11-19T10:04:39;7.73;;;6.43;;
59062;SDS011;44851;45.648;9.004;2023-11-19T10:07:06;6.97;;;6.27;;
59062;SDS011;44851;45.648;9.004;2023-11-19T10:09:32;6.60;;;5.90;;
59062;SDS011;44851;45.648;9.004;2023-11-19T10:11:57;5.90;;;5.40;;
59062;SDS011;44851;45.648;9.004;2023-11-19T10:14:23;6.37;;;5.70;;
59062;SDS011;44851;45.648;9.004;2023-11-19T10:16:49;6.67;;;6.07;;
59062;SDS011;44851;45.648;9.004;2023-11-19T10:19:23;7.97;;;6.17;;
59062;SDS011;44851;45.648;9.004;2023-11-19T10:21:48;7.53;;;6.30;;
59062;SDS011;44851;45.648;9.004;2023-11-19T10:24:14;7.97;;;6.53;;
59062;SDS011;44851;45.648;9.004;2023-11-19T10:26:39;7.03;;;6.33;;
59062;SDS011;44851;45.648;9.004;2023-11-19T10:29:07;14.70;;;7.20;;
59062;SDS011;44851;45.648;9.004;2023-11-19T10:31:32;7.30;;;6.50;;
59062;SDS011;44851;45.648;9.004;2023-11-19T10:33:57;6.77;;;6.10;;
59062;SDS011;44851;45.648;9.004;2023-11-19T10:36:23;7.17;;;6.47;;
59062;SDS011;44851;45.648;9.004;2023-11-19T10:39:02;9.00;;;6.57;;
59062;SDS011;44851;45.648;9.004;2023-11-19T10:41:31;7.00;;;6.37;;
59062;SDS011;44851;45.648;9.004;2023-11-19T10:43:57;6.63;;;5.93;;
59062;SDS011;44851;45.648;9.004;2023-11-19T10:46:23;7.43;;;6.73;;
59062;SDS011;44851;45.648;9.004;2023-11-19T10:49:01;7.63;;;6.30;;
59062;SDS011;44851;45.648;9.004;2023-11-19T10:51:27;7.20;;;6.50;;
59062;SDS011;44851;45.648;9.004;2023-11-19T10:53:54;6.93;;;6.23;;
59062;SDS011;44851;45.648;9.004;2023-11-19T10:56:25;6.83;;;6.13;;
59062;SDS011;44851;45.648;9.004;2023-11-19T10:58:53;7.13;;;6.17;;
59062;SDS011;44851;45.648;9.004;2023-11-19T11:01:20;6.63;;;6.03;;
59062;SDS011;44851;45.648;9.004;2023-11-19T11:03:48;6.90;;;6.27;;
59062;SDS011;44851;45.648;9.004;2023-11-19T11:06:16;6.40;;;5.80;;
59062;SDS011;44851;45.648;9.004;2023-11-19T11:08:43;6.77;;;6.03;;
59062;SDS011;44851;45.648;9.004;2023-11-19T11:11:08;7.23;;;6.07;;
59062;SDS011;44851;45.648;9.004;2023-11-19T11:13:38;6.77;;;6.13;;
59062;SDS011;44851;45.648;9.004;2023-11-19T11:16:07;6.77;;;5.33;;
59062;SDS011;44851;45.648;9.004;2023-11-19T11:18:33;6.03;;;5.50;;
59062;SDS011;44851;45.648;9.004;2023-11-19T11:21:11;4.93;;;4.50;;
59062;SDS011;44851;45.648;9.004;2023-11-19T11:31:39;6.20;;;5.10;;
59062;SDS011;44851;45.648;9.004;2023-11-19T11:37:06;6.47;;;5.57;;
59062;SDS011;44851;45.648;9.004;2023-11-19T11:39:43;6.73;;;5.37;;
59062;SDS011;44851;45.648;9.004;2023-11-19T11:42:30;7.03;;;6.33;;
59062;SDS011;44851;45.648;9.004;2023-11-19T11:50:14;8.30;;;7.47;;
59062;SDS011;44851;45.648;9.004;2023-11-19T11:55:34;9.20;;;8.20;;
59062;SDS011;44851;45.648;9.004;2023-11-19T11:58:27;10.60;;;9.30;;
59062;SDS011;44851;45.648;9.004;2023-11-19T12:00:57;8.27;;;7.50;;
59062;SDS011;44851;45.648;9.004;2023-11-19T12:03:23;10.57;;;9.27;;
59062;SDS011;44851;45.648;9.004;2023-11-19T12:05:49;10.77;;;9.63;;
59062;SDS011;44851;45.648;9.004;2023-11-19T12:08:15;11.60;;;10.40;;
59062;SDS011;44851;45.648;9.004;2023-11-19T12:13:14;12.10;;;10.90;;
59062;SDS011;44851;45.648;9.004;2023-11-19T12:18:21;12.77;;;11.47;;
59062;SDS011;44851;45.648;9.004;2023-11-19T12:20:48;12.53;;;11.27;;
59062;SDS011;44851;45.648;9.004;2023-11-19T12:23:14;12.83;;;11.53;;
59062;SDS011;44851;45.648;9.004;2023-11-19T12:25:40;13.57;;;12.17;;
59062;SDS011;44851;45.648;9.004;2023-11-19T12:28:05;12.83;;;11.63;;
59062;SDS011;44851;45.648;9.004;2023-11-19T12:30:36;14.20;;;12.80;;
59062;SDS011;44851;45.648;9.004;2023-11-19T12:33:07;13.47;;;12.17;;
59062;SDS011;44851;45.648;9.004;2023-11-19T12:35:34;14.50;;;13.10;;
59062;SDS011;44851;45.648;9.004;2023-11-19T12:38:07;13.37;;;12.00;;
59062;SDS011;44851;45.648;9.004;2023-11-19T12:40:32;13.63;;;12.23;;
59062;SDS011;44851;45.648;9.004;2023-11-19T12:42:58;13.90;;;12.50;;
59062;SDS011;44851;45.648;9.004;2023-11-19T12:45:25;13.60;;;12.20;;
59062;SDS011;44851;45.648;9.004;2023-11-19T12:48:06;13.23;;;11.93;;
59062;SDS011;44851;45.648;9.004;2023-11-19T12:50:52;13.33;;;12.00;;
59062;SDS011;44851;45.648;9.004;2023-11-19T12:53:26;13.50;;;12.20;;
59062;SDS011;44851;45.648;9.004;2023-11-19T12:55:54;12.20;;;11.00;;
59062;SDS011;44851;45.648;9.004;2023-11-19T12:58:33;12.37;;;11.17;;
59062;SDS011;44851;45.648;9.004;2023-11-19T13:01:00;12.70;;;11.50;;
59062;SDS011;44851;45.648;9.004;2023-11-19T13:03:29;11.43;;;10.30;;
59062;SDS011;44851;45.648;9.004;2023-11-19T13:06:06;11.87;;;10.67;;
59062;SDS011;44851;45.648;9.004;2023-11-19T13:11:04;11.70;;;10.60;;
59062;SDS011;44851;45.648;9.004;2023-11-19T13:13:31;12.70;;;10.90;;
59062;SDS011;44851;45.648;9.004;2023-11-19T13:16:03;10.47;;;9.47;;
59062;SDS011;44851;45.648;9.004;2023-11-19T13:18:34;10.80;;;9.80;;
59062;SDS011;44851;45.648;9.004;2023-11-19T13:20:59;14.60;;;13.20;;
59062;SDS011;44851;45.648;9.004;2023-11-19T13:23:25;12.57;;;11.27;;
59062;SDS011;44851;45.648;9.004;2023-11-19T13:25:51;11.80;;;10.70;;
59062;SDS011;44851;45.648;9.004;2023-11-19T13:28:16;10.73;;;9.70;;
59062;SDS011;44851;45.648;9.004;2023-11-19T13:30:41;11.57;;;10.13;;
59062;SDS011;44851;45.648;9.004;2023-11-19T13:33:07;10.93;;;9.83;;
59062;SDS011;44851;45.648;9.004;2023-11-19T13:35:32;12.10;;;10.90;;
59062;SDS011;44851;45.648;9.004;2023-11-19T13:37:57;11.43;;;10.30;;
59062;SDS011;44851;45.648;9.004;2023-11-19T13:40:23;12.33;;;11.03;;
59062;SDS011;44851;45.648;9.004;2023-11-19T13:42:49;11.20;;;10.10;;
59062;SDS011;44851;45.648;9.004;2023-11-19T13:45:15;12.93;;;10.70;;
59062;SDS011;44851;45.648;9.004;2023-11-19T13:47:43;11.63;;;9.87;;
59062;SDS011;44851;45.648;9.004;2023-11-19T13:50:09;11.03;;;9.93;;
59062;SDS011;44851;45.648;9.004;2023-11-19T13:52:36;11.47;;;10.37;;
59062;SDS011;44851;45.648;9.004;2023-11-19T13:55:04;11.37;;;9.93;;
59062;SDS011;44851;45.648;9.004;2023-11-19T13:57:36;10.33;;;9.33;;
59062;SDS011;44851;45.648;9.004;2023-11-19T14:00:03;10.30;;;9.27;;
59062;SDS011;44851;45.648;9.004;2023-11-19T14:02:35;9.77;;;8.73;;
59062;SDS011;44851;45.648;9.004;2023-11-19T14:05:01;9.23;;;8.23;;
59062;SDS011;44851;45.648;9.004;2023-11-19T14:07:26;9.20;;;8.00;;
59062;SDS011;44851;45.648;9.004;2023-11-19T14:09:52;8.30;;;7.37;;
59062;SDS011;44851;45.648;9.004;2023-11-19T14:12:19;9.07;;;7.47;;
59062;SDS011;44851;45.648;9.004;2023-11-19T14:14:44;8.47;;;7.53;;
59062;SDS011;44851;45.648;9.004;2023-11-19T14:17:09;7.77;;;6.97;;
59062;SDS011;44851;45.648;9.004;2023-11-19T14:19:36;10.43;;;7.47;;
59062;SDS011;44851;45.648;9.004;2023-11-19T14:22:01;8.50;;;7.70;;
59062;SDS011;44851;45.648;9.004;2023-11-19T14:24:27;7.93;;;7.00;;
59062;SDS011;44851;45.648;9.004;2023-11-19T14:26:52;8.10;;;7.30;;
59062;SDS011;44851;45.648;9.004;2023-11-19T14:29:18;8.17;;;7.07;;
59062;SDS011;44851;45.648;9.004;2023-11-19T14:31:43;9.73;;;7.17;;
59062;SDS011;44851;45.648;9.004;2023-11-19T14:34:09;7.90;;;7.10;;
59062;SDS011;44851;45.648;9.004;2023-11-19T14:36:34;9.60;;;7.20;;
59062;SDS011;44851;45.648;9.004;2023-11-19T14:39:00;7.23;;;6.53;;
59062;SDS011;44851;45.648;9.004;2023-11-19T14:41:25;7.10;;;6.40;;
59062;SDS011;44851;45.648;9.004;2023-11-19T14:43:50;10.23;;;6.73;;
59062;SDS011;44851;45.648;9.004;2023-11-19T14:46:16;7.00;;;6.30;;
59062;SDS011;44851;45.648;9.004;2023-11-19T14:48:41;8.57;;;6.33;;
59062;SDS011;44851;45.648;9.004;2023-11-19T14:51:06;6.83;;;6.10;;
59062;SDS011;44851;45.648;9.004;2023-11-19T14:53:32;7.93;;;6.30;;
59062;SDS011;44851;45.648;9.004;2023-11-19T14:55:58;7.07;;;6.23;;
59062;SDS011;44851;45.648;9.004;2023-11-19T14:58:23;6.90;;;6.00;;
59062;SDS011;44851;45.648;9.004;2023-11-19T15:00:50;8.43;;;6.13;;
59062;SDS011;44851;45.648;9.004;2023-11-19T15:03:16;9.07;;;6.07;;
59062;SDS011;44851;45.648;9.004;2023-11-19T15:05:44;5.77;;;5.20;;
59062;SDS011;44851;45.648;9.004;2023-11-19T15:08:10;6.23;;;5.10;;